Time;durP1;ratioP1;P1;durP2;ratioP2;P2;SDS_P1;SDS_P2;PMS_P1;PMS_P2;Temp;Humidity;BMP_temperature;BMP_pressure;BME280_temperature;BME280_humidity;BME280_pressure;Samples;Min_cycle;Max_cycle;Signal;HPM_P1;HPM_P2
2022/08/30 00:01:28;;;;;;;4.57;4.07;;;17.60;99.90;;;;;;5052389;28;20465;-50
2022/08/30 00:03:57;;;;;;;3.77;3.37;;;17.70;99.90;;;;;;5051274;28;20560;-51
2022/08/30 00:06:25;;;;;;;3.90;3.10;;;17.90;99.90;;;;;;5052537;28;20434;-50
2022/08/30 00:08:52;;;;;;;3.43;3.13;;;17.60;99.90;;;;;;5052090;28;20958;-50
2022/08/30 00:11:23;;;;;;;3.53;3.17;;;17.60;99.90;;;;;;5052299;28;20453;-51
2022/08/30 00:13:51;;;;;;;8.80;3.73;;;17.60;99.90;;;;;;5052460;28;20444;-50
2022/08/30 00:16:19;;;;;;;3.97;3.10;;;17.70;99.90;;;;;;5052327;28;20843;-50
2022/08/30 00:18:48;;;;;;;3.87;3.57;;;17.90;99.90;;;;;;5052082;28;20433;-50
2022/08/30 00:21:15;;;;;;;3.87;3.57;;;17.30;99.90;;;;;;5052100;28;20457;-50
2022/08/30 00:23:42;;;;;;;4.87;4.27;;;17.50;99.90;;;;;;5052175;28;20465;-51
2022/08/30 00:26:09;;;;;;;3.37;3.07;;;17.60;99.90;;;;;;5052246;28;20438;-50
2022/08/30 00:28:36;;;;;;;8.97;4.00;;;17.80;99.90;;;;;;5051794;28;20949;-50
2022/08/30 00:31:03;;;;;;;4.60;4.20;;;17.30;99.90;;;;;;5051908;28;20465;-50
2022/08/30 00:33:30;;;;;;;5.40;4.10;;;17.40;99.90;;;;;;5052005;28;20415;-51
2022/08/30 00:35:58;;;;;;;5.77;5.20;;;17.50;99.90;;;;;;5052157;28;20974;-51
2022/08/30 00:38:24;;;;;;;4.50;4.10;;;17.50;99.90;;;;;;5051749;28;20433;-50
2022/08/30 00:40:52;;;;;;;5.93;5.33;;;17.30;99.90;;;;;;5051958;28;20461;-50
2022/08/30 00:43:24;;;;;;;5.40;4.90;;;17.40;99.90;;;;;;5052045;28;20918;-50
2022/08/30 00:45:51;;;;;;;6.07;4.50;;;17.50;99.90;;;;;;5052038;28;20512;-50
2022/08/30 00:48:18;;;;;;;6.47;5.00;;;17.30;99.90;;;;;;5051955;28;20437;-50
2022/08/30 00:50:48;;;;;;;5.03;4.00;;;17.60;99.90;;;;;;5051457;28;20460;-50
2022/08/30 00:53:20;;;;;;;4.13;3.73;;;17.40;99.90;;;;;;5051986;28;20436;-50
2022/08/30 00:55:49;;;;;;;4.00;3.60;;;17.30;99.90;;;;;;5051944;28;20437;-51
2022/08/30 00:58:22;;;;;;;5.17;4.20;;;17.40;99.90;;;;;;5051856;28;20527;-50
2022/08/30 01:00:52;;;;;;;5.90;4.47;;;17.40;99.90;;;;;;5051504;28;20842;-50
2022/08/30 01:03:18;;;;;;;4.60;4.20;;;17.30;99.90;;;;;;5051741;28;21028;-50
2022/08/30 01:05:48;;;;;;;5.33;4.30;;;17.70;99.90;;;;;;5051738;28;21017;-51
2022/08/30 01:08:16;;;;;;;4.80;4.40;;;17.10;99.90;;;;;;5051904;28;20429;-50
2022/08/30 01:10:43;;;;;;;4.57;4.17;;;17.80;99.90;;;;;;5051391;28;20456;-51
2022/08/30 01:13:12;;;;;;;4.77;4.37;;;17.30;99.90;;;;;;5052353;28;20480;-50
2022/08/30 01:15:39;;;;;;;5.30;4.90;;;17.10;99.90;;;;;;5051743;28;20441;-51
2022/08/30 01:18:07;;;;;;;6.13;4.57;;;17.30;99.90;;;;;;5051539;28;20440;-51
2022/08/30 01:20:38;;;;;;;5.37;4.87;;;17.20;99.90;;;;;;5051330;28;20474;-50
2022/08/30 01:23:11;;;;;;;5.40;4.90;;;17.30;99.90;;;;;;5051615;28;20436;-50
2022/08/30 01:25:41;;;;;;;5.90;5.37;;;17.00;99.90;;;;;;5051574;28;20854;-50
2022/08/30 01:28:11;;;;;;;5.70;5.27;;;17.20;99.90;;;;;;5051483;28;20438;-50
2022/08/30 01:30:39;;;;;;;6.00;5.40;;;17.10;99.90;;;;;;5051099;28;20457;-50
2022/08/30 01:33:10;;;;;;;5.87;5.27;;;17.20;99.90;;;;;;5051487;28;21004;-50
2022/08/30 01:35:44;;;;;;;4.83;4.30;;;17.20;99.90;;;;;;5051587;28;20436;-50
2022/08/30 01:38:17;;;;;;;5.80;5.30;;;17.10;99.90;;;;;;5051593;28;20467;-51
2022/08/30 01:40:44;;;;;;;4.83;4.43;;;17.10;99.90;;;;;;5050926;28;20455;-51
2022/08/30 01:43:12;;;;;;;6.17;5.67;;;17.10;99.90;;;;;;5051429;28;20448;-50
2022/08/30 01:45:38;;;;;;;5.50;5.00;;;17.10;99.90;;;;;;5051410;28;20484;-51
2022/08/30 01:48:05;;;;;;;6.50;5.90;;;17.10;99.90;;;;;;5051562;28;20412;-50
2022/08/30 01:50:32;;;;;;;5.63;5.13;;;17.00;99.90;;;;;;5050983;28;20463;-51
2022/08/30 01:52:58;;;;;;;6.90;5.30;;;17.00;99.90;;;;;;5051309;28;20787;-51
2022/08/30 01:55:26;;;;;;;5.70;5.20;;;17.00;99.90;;;;;;5051351;28;20440;-50
2022/08/30 01:57:53;;;;;;;6.20;5.70;;;17.00;99.90;;;;;;5051301;28;20429;-50
2022/08/30 02:00:20;;;;;;;6.47;5.87;;;17.10;99.90;;;;;;5050819;28;20481;-50
2022/08/30 02:02:46;;;;;;;6.13;5.53;;;17.00;99.90;;;;;;5049871;28;20742;-51
2022/08/30 02:05:13;;;;;;;5.53;5.03;;;16.50;99.90;;;;;;5051210;28;20479;-51
2022/08/30 02:07:40;;;;;;;7.20;6.50;;;17.10;99.90;;;;;;5052810;28;20936;-51
2022/08/30 02:10:07;;;;;;;5.80;5.20;;;17.10;99.90;;;;;;5054469;28;20489;-51
2022/08/30 02:12:35;;;;;;;7.07;6.47;;;16.80;99.90;;;;;;5054771;28;20428;-51
2022/08/30 02:15:01;;;;;;;7.53;6.20;;;16.70;99.90;;;;;;5054693;28;20436;-49
2022/08/30 02:17:28;;;;;;;5.60;5.10;;;16.80;99.90;;;;;;5054723;28;20928;-50
2022/08/30 02:19:54;;;;;;;7.03;6.43;;;16.80;99.90;;;;;;5054115;28;20432;-50
2022/08/30 02:22:21;;;;;;;6.83;6.23;;;16.90;99.90;;;;;;5054530;28;20787;-50
2022/08/30 02:24:47;;;;;;;7.13;6.47;;;16.80;99.90;;;;;;5054546;28;20946;-50
2022/08/30 02:27:14;;;;;;;8.27;7.40;;;16.70;99.90;;;;;;5054529;28;20770;-50
2022/08/30 02:29:42;;;;;;;8.60;7.63;;;16.80;99.90;;;;;;5054038;28;20444;-50
2022/08/30 02:32:09;;;;;;;9.20;8.40;;;16.70;99.90;;;;;;5054372;28;20434;-50
2022/08/30 02:34:36;;;;;;;8.63;7.37;;;16.60;99.90;;;;;;5053046;28;20450;-50
2022/08/30 02:37:03;;;;;;;7.40;6.70;;;16.50;99.90;;;;;;5054343;28;20440;-50
2022/08/30 02:39:30;;;;;;;7.33;6.73;;;16.60;99.90;;;;;;5053936;28;20866;-50
2022/08/30 02:41:56;;;;;;;7.57;6.77;;;16.60;99.90;;;;;;5054340;28;20450;-50
2022/08/30 02:44:23;;;;;;;7.30;6.60;;;16.80;99.90;;;;;;5054218;28;20436;-50
2022/08/30 02:46:51;;;;;;;11.00;8.00;;;16.60;99.90;;;;;;5054491;28;20429;-50
2022/08/30 02:49:17;;;;;;;11.90;8.13;;;16.60;99.90;;;;;;5053736;28;20444;-50
2022/08/30 02:51:44;;;;;;;9.17;8.37;;;16.20;99.90;;;;;;5054000;28;20451;-50
2022/08/30 02:54:14;;;;;;;9.37;8.47;;;16.60;99.90;;;;;;5054011;28;20447;-50
2022/08/30 02:56:41;;;;;;;8.00;7.20;;;16.50;99.90;;;;;;5053957;28;20415;-50
2022/08/30 02:59:07;;;;;;;9.67;8.13;;;16.70;99.90;;;;;;5053349;28;20473;-50
2022/08/30 03:01:37;;;;;;;9.20;8.27;;;16.40;99.90;;;;;;5053816;28;20452;-50
2022/08/30 03:04:06;;;;;;;9.80;8.80;;;16.40;99.90;;;;;;5053669;28;20544;-51
2022/08/30 03:06:32;;;;;;;9.40;8.60;;;16.30;99.90;;;;;;5053563;28;20535;-50
2022/08/30 03:08:59;;;;;;;9.60;8.80;;;16.40;99.90;;;;;;5053167;28;20789;-50
2022/08/30 03:11:26;;;;;;;9.50;8.63;;;16.80;99.90;;;;;;5053632;28;20463;-50
2022/08/30 03:13:52;;;;;;;9.13;8.30;;;16.50;99.90;;;;;;5053630;28;20427;-50
2022/08/30 03:16:20;;;;;;;10.20;9.30;;;16.20;99.90;;;;;;5053239;28;20437;-50
2022/08/30 03:18:47;;;;;;;9.00;8.20;;;16.30;99.90;;;;;;5051975;28;20441;-50
2022/08/30 03:21:16;;;;;;;13.47;9.90;;;16.40;99.90;;;;;;5053480;28;20477;-50
2022/08/30 03:23:43;;;;;;;8.90;8.10;;;16.00;99.90;;;;;;5053451;28;20925;-50
2022/08/30 03:26:13;;;;;;;8.87;8.07;;;15.90;99.90;;;;;;5053332;28;20501;-50
2022/08/30 03:28:40;;;;;;;9.83;8.90;;;16.40;99.90;;;;;;5052745;28;20523;-51
2022/08/30 03:31:07;;;;;;;8.73;7.93;;;16.40;99.90;;;;;;5053029;28;20460;-49
2022/08/30 03:33:33;;;;;;;10.70;9.70;;;16.40;99.90;;;;;;5053484;28;20436;-50
2022/08/30 03:36:00;;;;;;;9.73;8.73;;;16.30;99.90;;;;;;5053059;28;20439;-50
2022/08/30 03:38:29;;;;;;;9.13;8.27;;;16.40;99.90;;;;;;5053117;28;20475;-49
2022/08/30 03:40:55;;;;;;;10.23;9.17;;;16.10;99.90;;;;;;5052914;28;20462;-49
2022/08/30 03:43:22;;;;;;;11.63;10.53;;;15.90;99.90;;;;;;5053086;28;20436;-50
2022/08/30 03:45:49;;;;;;;9.20;8.30;;;16.00;99.90;;;;;;5052417;28;20995;-49
2022/08/30 03:48:15;;;;;;;10.00;8.80;;;16.70;99.90;;;;;;5052795;28;20934;-49
2022/08/30 03:50:42;;;;;;;9.93;8.93;;;16.80;99.90;;;;;;5052302;28;20467;-49
2022/08/30 03:53:08;;;;;;;9.80;8.90;;;16.60;99.90;;;;;;5052627;28;20442;-50
2022/08/30 03:55:36;;;;;;;9.83;8.97;;;16.20;99.90;;;;;;5052655;28;20498;-49
2022/08/30 03:58:03;;;;;;;9.40;8.50;;;15.90;99.90;;;;;;5052605;28;20428;-49
2022/08/30 04:00:30;;;;;;;10.67;8.73;;;16.50;99.90;;;;;;5052163;28;20466;-50
2022/08/30 04:02:56;;;;;;;9.33;8.53;;;16.20;99.90;;;;;;5052567;28;20972;-49
2022/08/30 04:05:23;;;;;;;9.57;8.60;;;16.20;99.90;;;;;;5052508;28;20986;-49
2022/08/30 04:07:50;;;;;;;9.30;8.50;;;16.20;99.90;;;;;;5052471;28;20428;-49
2022/08/30 04:10:20;;;;;;;9.60;8.57;;;16.20;99.90;;;;;;5051937;28;20456;-49
2022/08/30 04:12:47;;;;;;;8.73;7.97;;;16.20;99.90;;;;;;5052434;28;20763;-49
2022/08/30 04:15:15;;;;;;;10.90;9.90;;;16.30;99.90;;;;;;5052252;28;20918;-50
2022/08/30 04:17:41;;;;;;;9.70;8.53;;;16.30;99.90;;;;;;5052243;28;20962;-49
2022/08/30 04:20:09;;;;;;;9.10;8.13;;;16.20;99.90;;;;;;5052148;28;20472;-49
2022/08/30 04:22:36;;;;;;;9.83;8.90;;;16.20;99.90;;;;;;5052266;28;20446;-49
2022/08/30 04:25:03;;;;;;;13.50;12.20;;;16.70;99.90;;;;;;5050450;28;20443;-49
2022/08/30 04:27:30;;;;;;;9.60;8.70;;;16.10;99.90;;;;;;5051877;28;20974;-50
2022/08/30 04:29:59;;;;;;;13.33;9.50;;;16.80;99.90;;;;;;5051599;28;20483;-50
2022/08/30 04:32:25;;;;;;;8.90;8.00;;;16.20;99.90;;;;;;5051910;28;20475;-50
2022/08/30 04:34:56;;;;;;;8.30;7.50;;;16.40;99.90;;;;;;5052015;28;20439;-50
2022/08/30 04:37:23;;;;;;;8.50;7.70;;;16.40;99.90;;;;;;5050236;28;20543;-50
2022/08/30 04:39:49;;;;;;;9.00;8.10;;;16.40;99.90;;;;;;5051155;28;20434;-50
2022/08/30 04:42:17;;;;;;;10.83;6.70;;;16.40;99.90;;;;;;5052116;28;20842;-50
2022/08/30 04:44:44;;;;;;;8.57;7.53;;;16.40;99.90;;;;;;5051931;28;20443;-50
2022/08/30 04:47:12;;;;;;;11.67;8.10;;;16.70;99.90;;;;;;5051664;28;20485;-51
2022/08/30 04:49:39;;;;;;;9.13;8.30;;;16.60;99.90;;;;;;5051321;28;20448;-51
2022/08/30 04:52:07;;;;;;;11.23;7.67;;;16.50;99.90;;;;;;5051593;28;20455;-51
2022/08/30 04:54:34;;;;;;;10.80;9.20;;;16.80;99.90;;;;;;5051458;28;20509;-50
2022/08/30 04:57:00;;;;;;;9.70;8.33;;;16.50;99.90;;;;;;5051294;28;20431;-51
2022/08/30 04:59:27;;;;;;;9.93;8.70;;;16.60;99.90;;;;;;5050977;28;20440;-50
2022/08/30 05:01:54;;;;;;;9.33;8.30;;;16.60;99.90;;;;;;5051117;28;20455;-51
2022/08/30 05:04:22;;;;;;;8.60;7.90;;;16.80;99.90;;;;;;5051432;28;20432;-50
2022/08/30 05:06:49;;;;;;;9.30;8.50;;;17.00;99.90;;;;;;5051250;28;20472;-51
2022/08/30 05:09:15;;;;;;;15.13;9.63;;;16.90;99.90;;;;;;5049631;28;20450;-51
2022/08/30 05:11:42;;;;;;;10.33;9.43;;;16.50;99.90;;;;;;5051245;28;20480;-50
2022/08/30 05:14:09;;;;;;;10.47;9.47;;;16.40;99.90;;;;;;5051471;28;20435;-51
2022/08/30 05:16:36;;;;;;;10.90;9.87;;;16.80;99.90;;;;;;5050932;28;20436;-50
2022/08/30 05:19:03;;;;;;;11.17;10.07;;;16.80;99.90;;;;;;5050657;28;20435;-50
2022/08/30 05:21:31;;;;;;;9.53;8.63;;;16.90;99.90;;;;;;5050741;28;20464;-49
2022/08/30 05:23:59;;;;;;;9.77;8.87;;;17.20;99.90;;;;;;5051476;28;20439;-49
2022/08/30 05:26:28;;;;;;;10.30;9.30;;;17.00;99.90;;;;;;5051245;28;20480;-49
2022/08/30 05:28:55;;;;;;;10.20;9.30;;;17.00;99.90;;;;;;5050327;28;20444;-50
2022/08/30 05:31:23;;;;;;;9.47;8.63;;;17.10;99.90;;;;;;5065956;28;20467;-50
2022/08/30 05:33:52;;;;;;;8.80;8.00;;;17.10;99.90;;;;;;5050446;28;20428;-50
2022/08/30 05:36:21;;;;;;;9.17;8.00;;;17.10;99.90;;;;;;5050930;28;20436;-50
2022/08/30 05:38:49;;;;;;;10.10;8.53;;;17.40;99.90;;;;;;5050353;28;20427;-50
2022/08/30 05:41:18;;;;;;;9.60;8.70;;;17.20;99.90;;;;;;5050803;28;20472;-49
2022/08/30 05:43:44;;;;;;;9.50;8.60;;;17.20;99.90;;;;;;5054002;28;20450;-50
2022/08/30 05:46:13;;;;;;;9.17;8.37;;;17.40;99.90;;;;;;5053671;28;20473;-50
2022/08/30 05:48:40;;;;;;;9.60;8.60;;;17.50;99.90;;;;;;5054380;28;20833;-51
2022/08/30 05:51:09;;;;;;;11.33;10.33;;;17.40;99.90;;;;;;5054508;28;20912;-51
2022/08/30 05:53:36;;;;;;;9.13;8.17;;;17.30;99.90;;;;;;5054549;28;20433;-48
2022/08/30 05:56:07;;;;;;;8.30;7.60;;;17.50;99.90;;;;;;5053766;28;20433;-50
2022/08/30 05:58:34;;;;;;;9.20;8.40;;;17.50;99.90;;;;;;5054196;28;20432;-50
2022/08/30 06:01:02;;;;;;;9.70;8.70;;;17.60;99.90;;;;;;5054367;28;20818;-50
2022/08/30 06:03:31;;;;;;;10.20;8.70;;;17.70;99.90;;;;;;5054424;28;20485;-49
2022/08/30 06:05:58;;;;;;;10.07;9.10;;;17.70;99.90;;;;;;5054080;28;20476;-50
2022/08/30 06:08:24;;;;;;;9.93;8.97;;;17.70;99.90;;;;;;5053920;28;20436;-50
2022/08/30 06:10:51;;;;;;;9.40;8.60;;;17.50;99.90;;;;;;5054045;28;20470;-49
2022/08/30 06:13:19;;;;;;;10.90;9.90;;;17.80;99.90;;;;;;5053996;28;20433;-50
2022/08/30 06:15:46;;;;;;;10.33;9.47;;;17.80;99.90;;;;;;5053755;28;20468;-50
2022/08/30 06:18:13;;;;;;;12.77;10.57;;;18.00;99.90;;;;;;5053657;28;20447;-50
2022/08/30 06:20:42;;;;;;;11.23;9.73;;;17.90;99.90;;;;;;5053319;28;20587;-50
2022/08/30 06:23:08;;;;;;;10.37;9.47;;;18.10;99.90;;;;;;5053963;28;20465;-50
2022/08/30 06:25:36;;;;;;;10.57;9.67;;;18.00;99.90;;;;;;5053524;28;20444;-50
2022/08/30 06:28:04;;;;;;;11.57;10.57;;;18.00;99.90;;;;;;5054034;28;20437;-50
2022/08/30 06:30:32;;;;;;;11.20;10.10;;;18.60;99.90;;;;;;5053325;28;20465;-49
2022/08/30 06:32:59;;;;;;;11.13;10.03;;;18.10;99.90;;;;;;5053492;28;20516;-50
2022/08/30 06:35:25;;;;;;;11.70;10.70;;;18.50;99.90;;;;;;5053653;28;20448;-50
2022/08/30 06:37:52;;;;;;;12.33;11.20;;;18.30;99.90;;;;;;5053346;28;20923;-50
2022/08/30 06:40:20;;;;;;;11.00;9.97;;;18.40;99.90;;;;;;5053099;28;20450;-49
2022/08/30 06:42:47;;;;;;;12.60;11.30;;;18.60;99.90;;;;;;5053287;28;20438;-50
2022/08/30 06:45:15;;;;;;;17.40;12.13;;;18.60;99.90;;;;;;5053523;28;20537;-49
2022/08/30 06:47:43;;;;;;;13.97;11.10;;;18.50;99.90;;;;;;5053011;28;20478;-50
2022/08/30 06:50:12;;;;;;;11.40;10.30;;;18.60;99.90;;;;;;5052649;28;20453;-50
2022/08/30 06:52:40;;;;;;;12.90;11.60;;;18.60;99.90;;;;;;5052972;28;20441;-50
2022/08/30 06:55:07;;;;;;;12.50;11.40;;;18.50;99.90;;;;;;5053509;28;20469;-50
2022/08/30 06:57:34;;;;;;;11.73;10.50;;;18.80;99.90;;;;;;5053081;28;20843;-50
2022/08/30 07:00:01;;;;;;;13.80;11.40;;;18.80;99.90;;;;;;5052920;28;20448;-51
2022/08/30 07:02:28;;;;;;;14.47;12.23;;;18.80;99.90;;;;;;5053196;28;20942;-51
2022/08/30 07:04:56;;;;;;;12.90;11.50;;;19.00;99.90;;;;;;5053162;28;20440;-50
2022/08/30 07:07:22;;;;;;;15.70;11.50;;;19.00;99.90;;;;;;5053054;28;20564;-50
2022/08/30 07:09:49;;;;;;;13.93;12.53;;;18.80;99.90;;;;;;5052641;28;20431;-50
2022/08/30 07:12:16;;;;;;;14.43;12.80;;;19.00;99.90;;;;;;5052995;28;20434;-51
2022/08/30 07:14:43;;;;;;;14.90;12.00;;;19.00;99.90;;;;;;5052793;28;20434;-49
2022/08/30 07:19:50;;;;;;;13.70;12.30;;;19.00;99.90;;;;;;5052564;28;20444;-50
2022/08/30 07:22:18;;;;;;;15.27;13.50;;;19.10;99.90;;;;;;5053165;28;20985;-50
2022/08/30 07:24:45;;;;;;;13.17;11.87;;;19.20;99.90;;;;;;5052443;28;20509;-50
2022/08/30 07:27:12;;;;;;;13.60;12.40;;;19.30;99.90;;;;;;5052387;28;20992;-50
2022/08/30 07:29:39;;;;;;;12.50;11.30;;;19.40;99.90;;;;;;5052837;28;20985;-50
2022/08/30 07:32:06;;;;;;;12.33;11.17;;;19.40;99.90;;;;;;5052781;28;20525;-52
2022/08/30 07:34:33;;;;;;;13.23;11.77;;;19.50;99.90;;;;;;5052402;28;20446;-52
2022/08/30 07:36:59;;;;;;;12.70;11.50;;;19.70;99.90;;;;;;5052561;28;20428;-52
2022/08/30 07:39:27;;;;;;;13.03;10.67;;;19.60;99.90;;;;;;5052264;28;20435;-50
2022/08/30 07:41:54;;;;;;;13.10;11.90;;;19.10;99.90;;;;;;5052243;28;20542;-52
2022/08/30 07:44:21;;;;;;;11.73;10.73;;;19.50;99.90;;;;;;5052355;28;20429;-52
2022/08/30 07:46:47;;;;;;;10.77;9.77;;;19.40;99.90;;;;;;5052304;28;20538;-50
2022/08/30 07:49:14;;;;;;;9.90;8.93;;;19.50;99.90;;;;;;5052412;28;20435;-52
2022/08/30 07:51:41;;;;;;;10.30;9.30;;;19.50;99.90;;;;;;5052657;28;20468;-51
2022/08/30 07:54:08;;;;;;;10.70;9.70;;;19.30;99.90;;;;;;5052064;28;20432;-51
2022/08/30 07:56:36;;;;;;;10.00;9.10;;;19.60;99.90;;;;;;5051932;28;20440;-51
2022/08/30 07:59:02;;;;;;;8.70;7.83;;;19.50;99.90;;;;;;5051726;28;20458;-51
2022/08/30 08:01:29;;;;;;;10.90;9.90;;;19.60;99.90;;;;;;5052471;28;20941;-50
2022/08/30 08:03:56;;;;;;;9.10;8.33;;;19.60;99.90;;;;;;5052227;28;20438;-49
2022/08/30 08:06:23;;;;;;;10.03;8.10;;;19.80;99.90;;;;;;5051343;28;20474;-49
2022/08/30 08:08:52;;;;;;;8.83;7.90;;;19.70;99.90;;;;;;5051373;28;20951;-50
2022/08/30 08:11:21;;;;;;;9.50;7.17;;;19.80;99.90;;;;;;5051923;28;20499;-49
2022/08/30 08:13:50;;;;;;;6.80;6.23;;;19.90;99.90;;;;;;5052182;28;20443;-50
2022/08/30 08:16:17;;;;;;;6.30;5.80;;;19.90;99.90;;;;;;5052232;28;20899;-50
2022/08/30 08:18:43;;;;;;;5.57;5.10;;;20.10;99.90;;;;;;5051519;28;20933;-50
2022/08/30 08:21:10;;;;;;;4.93;4.53;;;20.20;99.90;;;;;;5051565;28;20476;-50
2022/08/30 08:23:37;;;;;;;5.40;4.97;;;20.20;99.90;;;;;;5051463;28;20464;-50
2022/08/30 08:26:04;;;;;;;5.20;4.70;;;20.30;99.90;;;;;;5052326;28;20801;-50
2022/08/30 08:28:31;;;;;;;4.50;3.97;;;20.50;99.90;;;;;;5051154;28;21116;-50
2022/08/30 08:30:59;;;;;;;8.63;4.20;;;20.50;99.90;;;;;;5051626;28;20532;-50
2022/08/30 08:33:26;;;;;;;6.60;3.80;;;20.50;99.90;;;;;;5051660;28;20947;-50
2022/08/30 08:35:53;;;;;;;3.60;3.30;;;20.70;99.90;;;;;;5051418;28;20935;-50
2022/08/30 08:38:19;;;;;;;5.60;3.10;;;20.80;99.90;;;;;;5051590;28;20432;-48
2022/08/30 08:40:55;;;;;;;4.03;3.40;;;21.00;99.90;;;;;;5051578;28;20945;-51
2022/08/30 08:43:25;;;;;;;3.53;3.23;;;20.70;99.90;;;;;;5051951;28;20459;-48
2022/08/30 08:45:57;;;;;;;5.70;3.90;;;21.00;99.90;;;;;;5051516;28;20460;-49
2022/08/30 08:48:33;;;;;;;2.53;2.33;;;20.80;99.90;;;;;;5051418;28;20962;-49
2022/08/30 08:53:49;;;;;;;4.97;3.20;;;20.80;99.90;;;;;;5051729;28;20747;-49
2022/08/30 08:56:18;;;;;;;4.40;2.50;;;20.80;99.90;;;;;;5051349;28;20540;-49
2022/08/30 08:58:47;;;;;;;3.03;2.80;;;20.80;99.90;;;;;;5049269;28;20457;-49
2022/08/30 09:01:18;;;;;;;2.50;2.30;;;20.70;99.90;;;;;;5050916;28;20454;-49
2022/08/30 09:03:47;;;;;;;3.17;2.40;;;20.60;99.90;;;;;;5051641;28;20435;-49
2022/08/30 09:06:33;;;;;;;3.20;2.33;;;20.70;99.90;;;;;;5051038;28;20438;-49
2022/08/30 09:08:59;;;;;;;4.13;3.10;;;20.50;99.90;;;;;;5050210;28;20436;-49
2022/08/30 09:11:28;;;;;;;3.63;3.23;;;20.30;99.90;;;;;;5049240;28;20840;-49
2022/08/30 09:13:55;;;;;;;2.33;2.10;;;20.40;99.90;;;;;;5051437;28;20451;-49
2022/08/30 09:16:56;;;;;;;3.63;2.13;;;20.00;99.90;;;;;;5051142;28;20472;-50
2022/08/30 09:19:34;;;;;;;2.60;2.40;;;20.50;99.90;;;;;;5055089;28;20435;-50
2022/08/30 09:22:03;;;;;;;5.67;2.40;;;20.20;99.90;;;;;;5055011;28;20824;-50
2022/08/30 09:24:38;;;;;;;2.00;1.80;;;20.50;99.90;;;;;;5055024;28;20435;-50
2022/08/30 09:27:19;;;;;;;5.80;2.43;;;20.60;99.90;;;;;;5055229;28;20491;-49
2022/08/30 09:29:55;;;;;;;3.60;2.10;;;20.50;99.90;;;;;;5054509;28;20432;-49
2022/08/30 09:32:31;;;;;;;2.70;1.40;;;20.60;99.90;;;;;;5053826;28;20456;-49
2022/08/30 09:34:59;;;;;;;3.77;1.40;;;20.90;99.90;;;;;;5055040;28;20440;-49
2022/08/30 09:37:33;;;;;;;2.10;1.60;;;20.70;99.90;;;;;;5055671;28;20746;-49
2022/08/30 09:40:00;;;;;;;2.20;1.40;;;20.80;99.90;;;;;;5054636;28;20532;-49
2022/08/30 09:42:29;;;;;;;5.50;1.60;;;20.50;99.90;;;;;;5054704;28;20433;-50
2022/08/30 09:45:09;;;;;;;2.00;1.60;;;21.00;99.90;;;;;;5054803;28;20468;-49
2022/08/30 09:47:39;;;;;;;4.03;2.00;;;20.90;99.90;;;;;;5054801;28;20969;-49
2022/08/30 09:50:10;;;;;;;3.50;1.30;;;20.80;99.90;;;;;;5054619;28;20504;-49
2022/08/30 09:52:51;;;;;;;1.83;1.20;;;20.90;99.90;;;;;;5054469;28;20440;-49
2022/08/30 09:55:33;;;;;;;3.23;1.10;;;21.10;99.90;;;;;;5053204;28;20957;-49
2022/08/30 09:58:08;;;;;;;3.60;0.97;;;21.10;99.90;;;;;;5054767;28;20433;-49
2022/08/30 10:00:40;;;;;;;2.40;1.27;;;21.30;99.90;;;;;;5054203;28;20815;-49
2022/08/30 10:03:19;;;;;;;2.80;1.30;;;21.40;99.90;;;;;;5054421;28;20452;-50
2022/08/30 10:05:54;;;;;;;1.43;1.20;;;21.50;99.90;;;;;;5053435;28;20538;-49
2022/08/30 10:08:29;;;;;;;2.37;1.40;;;21.30;99.90;;;;;;5055029;28;20657;-49
2022/08/30 10:11:00;;;;;;;3.33;1.10;;;21.50;99.90;;;;;;5053065;28;20461;-49
2022/08/30 10:13:45;;;;;;;3.30;1.50;;;21.70;99.90;;;;;;5054189;28;20449;-49
2022/08/30 10:16:27;;;;;;;1.50;1.10;;;21.60;99.90;;;;;;5054285;28;20817;-49
2022/08/30 10:19:01;;;;;;;2.90;1.47;;;21.50;99.90;;;;;;5052484;28;20818;-49
2022/08/30 10:21:36;;;;;;;3.77;1.43;;;21.50;99.90;;;;;;5089469;22;20506;-51
2022/08/30 10:24:07;;;;;;;2.87;1.50;;;21.70;99.90;;;;;;5094607;28;20490;-51
2022/08/30 10:26:38;;;;;;;1.50;1.20;;;21.80;99.90;;;;;;5076302;28;20460;-51
2022/08/30 10:29:09;;;;;;;1.70;1.07;;;21.50;99.90;;;;;;5092818;28;20487;-52
2022/08/30 10:31:41;;;;;;;1.97;1.20;;;21.90;99.90;;;;;;5093995;28;20452;-52
2022/08/30 10:34:14;;;;;;;4.17;1.40;;;22.00;99.90;;;;;;5094325;28;20446;-51
2022/08/30 10:36:45;;;;;;;4.90;2.13;;;22.00;99.90;;;;;;5093684;28;20469;-51
2022/08/30 10:39:22;;;;;;;1.87;1.40;;;22.10;99.90;;;;;;5093806;28;20465;-50
2022/08/30 10:41:52;;;;;;;2.27;1.20;;;22.20;99.90;;;;;;5093977;28;20465;-51
2022/08/30 10:44:22;;;;;;;1.60;1.20;;;22.40;99.90;;;;;;5093525;28;20471;-51
2022/08/30 10:47:05;;;;;;;2.53;1.23;;;22.50;99.90;;;;;;5093961;28;20425;-51
2022/08/30 10:49:37;;;;;;;2.40;1.47;;;22.60;99.80;;;;;;5093380;28;20913;-50
2022/08/30 10:52:17;;;;;;;2.20;1.63;;;22.70;99.80;;;;;;5109241;28;20466;-51
2022/08/30 10:54:49;;;;;;;3.10;1.40;;;22.80;99.50;;;;;;5093457;28;20929;-51
2022/08/30 10:57:16;;;;;;;1.97;1.17;;;22.40;99.00;;;;;;5093327;28;20445;-51
2022/08/30 10:59:47;;;;;;;1.40;1.00;;;22.60;99.00;;;;;;5092966;28;20528;-50
2022/08/30 11:02:39;;;;;;;1.63;1.07;;;22.80;98.80;;;;;;5093216;28;20464;-50
2022/08/30 11:05:31;;;;;;;2.17;1.30;;;22.80;98.00;;;;;;5093579;28;20528;-51
2022/08/30 11:08:08;;;;;;;2.73;1.53;;;22.80;98.20;;;;;;5093379;28;20489;-51
2022/08/30 11:10:47;;;;;;;2.70;1.60;;;22.90;98.50;;;;;;5093436;28;20455;-50
2022/08/30 11:13:16;;;;;;;1.90;1.23;;;22.80;98.50;;;;;;5093271;28;20902;-50
2022/08/30 11:16:01;;;;;;;3.77;1.60;;;22.90;98.80;;;;;;5093240;28;20434;-50
2022/08/30 11:18:30;;;;;;;2.63;1.43;;;22.80;99.40;;;;;;5092665;28;20446;-50
2022/08/30 11:21:20;;;;;;;2.57;1.60;;;22.80;99.70;;;;;;5093113;28;20875;-50
2022/08/30 11:24:03;;;;;;;1.87;1.60;;;22.90;99.60;;;;;;5093206;28;20437;-52
2022/08/30 11:27:09;;;;;;;1.47;1.13;;;22.80;99.80;;;;;;5093169;28;20426;-51
2022/08/30 11:29:41;;;;;;;4.60;1.57;;;22.80;99.60;;;;;;5092765;28;20442;-51
2022/08/30 11:32:57;;;;;;;2.53;1.90;;;22.70;99.50;;;;;;5092764;28;20887;-50
2022/08/30 11:35:41;;;;;;;8.50;2.77;;;22.90;99.20;;;;;;5092556;28;20822;-51
2022/08/30 11:38:20;;;;;;;1.90;1.33;;;23.00;99.20;;;;;;5092370;28;20448;-51
2022/08/30 11:40:52;;;;;;;1.83;1.23;;;23.10;99.10;;;;;;5091246;28;20954;-51
2022/08/30 11:43:53;;;;;;;7.60;2.27;;;23.10;99.20;;;;;;5092576;28;20473;-51
2022/08/30 11:46:33;;;;;;;1.50;1.23;;;23.20;98.40;;;;;;5092551;28;20431;-51
2022/08/30 11:49:05;;;;;;;2.53;1.57;;;23.10;98.20;;;;;;5091914;28;20467;-51
2022/08/30 11:52:03;;;;;;;2.13;1.50;;;23.20;97.90;;;;;;5092132;28;20457;-52
2022/08/30 11:54:36;;;;;;;3.77;1.57;;;23.30;97.40;;;;;;5108015;28;20460;-51
2022/08/30 11:57:17;;;;;;;2.73;1.57;;;23.40;97.70;;;;;;5092094;28;20434;-52
2022/08/30 11:59:52;;;;;;;2.30;1.67;;;23.40;97.60;;;;;;5092555;28;20431;-51
2022/08/30 12:02:46;;;;;;;3.77;1.90;;;23.40;97.60;;;;;;5092105;28;20466;-51
2022/08/30 12:05:48;;;;;;;1.60;1.30;;;23.40;97.40;;;;;;5092566;28;20947;-50
2022/08/30 12:08:46;;;;;;;2.17;1.70;;;23.40;97.20;;;;;;5092147;28;21001;-51
2022/08/30 12:11:59;;;;;;;2.50;1.40;;;23.40;97.20;;;;;;5092023;28;20488;-50
2022/08/30 12:14:50;;;;;;;1.70;1.20;;;23.40;97.00;;;;;;5092226;28;20452;-51
2022/08/30 12:20:18;;;;;;;4.80;1.60;;;23.60;96.70;;;;;;5091015;28;20441;-51
2022/08/30 12:22:45;;;;;;;3.00;1.70;;;23.70;96.40;;;;;;5091769;28;20431;-51
2022/08/30 12:25:19;;;;;;;3.10;1.70;;;23.70;96.30;;;;;;5092247;28;20692;-52
2022/08/30 12:27:46;;;;;;;3.47;1.50;;;23.80;96.10;;;;;;5091260;28;20475;-50
2022/08/30 12:30:14;;;;;;;3.00;1.60;;;23.80;96.10;;;;;;5091822;28;20436;-51
2022/08/30 12:32:46;;;;;;;4.57;1.47;;;23.70;95.90;;;;;;5091314;28;20441;-50
2022/08/30 12:35:21;;;;;;;2.30;1.33;;;23.80;95.80;;;;;;5091910;28;20793;-50
2022/08/30 12:37:57;;;;;;;2.90;1.77;;;23.90;95.50;;;;;;5091876;28;20435;-51
2022/08/30 12:40:25;;;;;;;2.10;1.37;;;23.90;95.10;;;;;;5090798;28;20432;-51
2022/08/30 12:42:55;;;;;;;2.23;1.33;;;23.90;94.90;;;;;;5090769;28;20618;-53
2022/08/30 12:45:26;;;;;;;1.73;1.10;;;24.00;94.80;;;;;;5091409;28;20471;-51
2022/08/30 12:47:56;;;;;;;2.10;1.40;;;24.10;95.10;;;;;;5091540;28;20471;-50
2022/08/30 12:50:26;;;;;;;1.70;1.50;;;24.10;95.10;;;;;;5090840;28;20424;-51
2022/08/30 12:52:58;;;;;;;2.50;1.60;;;24.10;94.80;;;;;;5091504;28;20804;-50
2022/08/30 12:55:28;;;;;;;2.23;1.47;;;24.10;94.80;;;;;;5091456;28;20799;-50
2022/08/30 12:58:00;;;;;;;2.30;1.93;;;24.00;95.00;;;;;;5091352;28;20421;-50
2022/08/30 13:00:29;;;;;;;3.93;2.60;;;24.00;94.60;;;;;;5106023;28;20936;-51
2022/08/30 13:02:58;;;;;;;13.40;2.67;;;23.90;94.40;;;;;;5092074;28;20437;-50
2022/08/30 13:05:33;;;;;;;3.27;2.27;;;23.90;94.50;;;;;;5091305;28;20502;-52
2022/08/30 13:08:11;;;;;;;3.10;2.03;;;24.00;94.40;;;;;;5090707;28;20468;-51